Time;durP1;ratioP1;P1;durP2;ratioP2;P2;SDS_P1;SDS_P2;PMS_P1;PMS_P2;Temp;Humidity;BMP_temperature;BMP_pressure;BME280_temperature;BME280_humidity;BME280_pressure;Samples;Min_cycle;Max_cycle;Signal;HPM_P1;HPM_P2
2021/07/30 00:02:21;;;;;;;3.47;3.35;;;20.00;58.20;;;;;;5034689;28;20050;-85
2021/07/30 00:04:47;;;;;;;3.20;3.10;;;20.00;58.30;;;;;;5039049;28;20374;-86
2021/07/30 00:07:13;;;;;;;3.47;3.28;;;20.00;58.30;;;;;;5038209;28;20037;-86
2021/07/30 00:09:39;;;;;;;3.15;3.05;;;19.90;58.40;;;;;;5036700;28;20386;-86
2021/07/30 00:12:06;;;;;;;3.28;3.13;;;19.90;58.40;;;;;;5037631;28;20056;-85
2021/07/30 00:14:32;;;;;;;3.20;3.10;;;19.90;58.50;;;;;;5031284;28;20025;-85
2021/07/30 00:16:58;;;;;;;3.28;3.08;;;19.80;58.60;;;;;;5038923;28;20038;-86
2021/07/30 00:19:24;;;;;;;3.05;2.95;;;19.80;58.60;;;;;;5036677;28;20398;-85
2021/07/30 00:21:50;;;;;;;3.35;3.15;;;19.80;58.60;;;;;;5037570;28;20053;-85
2021/07/30 00:24:16;;;;;;;2.95;2.85;;;19.80;58.70;;;;;;5036598;28;20020;-85
2021/07/30 00:26:43;;;;;;;2.92;2.72;;;19.80;58.80;;;;;;5034893;28;20033;-85
2021/07/30 00:29:09;;;;;;;2.88;2.70;;;19.70;58.80;;;;;;5035132;28;20447;-85
2021/07/30 00:31:35;;;;;;;2.90;2.80;;;19.70;58.90;;;;;;5038344;28;20056;-85
2021/07/30 00:34:01;;;;;;;2.90;2.80;;;19.70;58.90;;;;;;5036494;28;20060;-85
2021/07/30 00:36:27;;;;;;;2.67;2.58;;;19.70;59.00;;;;;;5041119;28;20029;-84
2021/07/30 00:38:53;;;;;;;3.22;3.03;;;19.70;59.00;;;;;;5047634;28;20031;-85
2021/07/30 00:41:19;;;;;;;2.97;2.88;;;19.60;59.00;;;;;;5032410;28;20038;-85
2021/07/30 00:43:45;;;;;;;3.15;3.05;;;19.60;59.10;;;;;;5053594;28;20394;-85
2021/07/30 00:46:11;;;;;;;3.15;3.05;;;19.60;59.20;;;;;;5036934;28;20030;-86
2021/07/30 00:48:37;;;;;;;3.03;2.92;;;19.60;59.20;;;;;;5036189;28;20033;-85
2021/07/30 00:51:03;;;;;;;3.10;2.97;;;19.60;59.20;;;;;;5019502;28;20021;-85
2021/07/30 00:53:30;;;;;;;2.90;2.80;;;19.50;59.30;;;;;;5031444;28;20033;-84
2021/07/30 00:55:57;;;;;;;3.00;2.90;;;19.50;59.30;;;;;;5020563;28;20037;-85
2021/07/30 00:58:24;;;;;;;2.97;2.88;;;19.50;59.40;;;;;;5035942;28;20029;-84
2021/07/30 01:00:51;;;;;;;3.10;3.00;;;19.50;59.50;;;;;;5035465;28;20375;-85
2021/07/30 01:03:17;;;;;;;3.17;2.97;;;19.50;59.50;;;;;;5036930;28;20056;-85
2021/07/30 01:05:43;;;;;;;3.13;2.97;;;19.40;59.50;;;;;;5034649;28;20021;-86
2021/07/30 01:08:09;;;;;;;2.90;2.80;;;19.40;59.60;;;;;;5018009;28;20030;-83
2021/07/30 01:10:35;;;;;;;3.40;3.20;;;19.40;59.70;;;;;;5051191;28;20021;-85
2021/07/30 01:13:02;;;;;;;2.92;2.83;;;19.40;59.70;;;;;;5019078;28;20081;-85
2021/07/30 01:15:28;;;;;;;3.08;2.97;;;19.40;59.70;;;;;;5036341;28;20030;-85
2021/07/30 01:17:54;;;;;;;2.85;2.75;;;19.40;59.80;;;;;;5034586;28;20024;-84
2021/07/30 01:20:24;;;;;;;6.15;3.13;;;19.30;59.80;;;;;;5032020;28;20029;-84
2021/07/30 01:22:57;;;;;;;3.00;2.90;;;19.30;59.90;;;;;;5037921;28;20048;-85
2021/07/30 01:25:24;;;;;;;3.25;3.08;;;19.30;59.90;;;;;;5036616;28;20053;-85
2021/07/30 01:27:50;;;;;;;3.22;3.03;;;19.30;60.00;;;;;;5035349;28;20041;-86
2021/07/30 01:30:17;;;;;;;2.88;2.78;;;19.30;60.00;;;;;;5034834;28;20031;-85
2021/07/30 01:32:44;;;;;;;2.67;2.58;;;19.20;60.00;;;;;;5032406;28;20045;-85
2021/07/30 01:35:10;;;;;;;2.78;2.67;;;19.20;60.10;;;;;;5017398;28;20021;-85
2021/07/30 01:37:36;;;;;;;3.08;2.97;;;19.20;60.10;;;;;;5037929;28;20462;-86
2021/07/30 01:40:03;;;;;;;2.80;2.70;;;19.20;60.20;;;;;;5034806;28;20040;-85
2021/07/30 01:42:29;;;;;;;2.85;2.63;;;19.20;60.30;;;;;;5019451;28;20422;-85
2021/07/30 01:44:56;;;;;;;2.80;2.70;;;19.20;60.30;;;;;;5034317;28;20405;-84
2021/07/30 01:47:22;;;;;;;3.33;3.13;;;19.20;60.40;;;;;;5031027;28;20045;-85
2021/07/30 01:49:48;;;;;;;3.17;2.95;;;19.10;60.40;;;;;;5037932;28;20044;-85
2021/07/30 01:52:15;;;;;;;2.70;2.60;;;19.10;60.40;;;;;;5036245;28;20037;-85
2021/07/30 01:54:41;;;;;;;3.58;3.33;;;19.10;60.50;;;;;;5035716;28;20030;-87
2021/07/30 01:57:07;;;;;;;2.70;2.60;;;19.10;60.60;;;;;;5034753;28;20025;-84
2021/07/30 01:59:33;;;;;;;2.60;2.50;;;19.10;60.60;;;;;;5030755;28;20025;-85
2021/07/30 02:01:59;;;;;;;2.80;2.70;;;19.10;60.70;;;;;;5015864;28;20506;-84
2021/07/30 02:04:25;;;;;;;2.58;2.47;;;19.10;60.80;;;;;;5026082;28;20041;-85
2021/07/30 02:06:51;;;;;;;2.80;2.60;;;19.10;60.80;;;;;;5026612;28;20044;-85
2021/07/30 02:09:17;;;;;;;2.92;2.75;;;19.00;60.80;;;;;;5025743;28;20029;-86
2021/07/30 02:11:44;;;;;;;2.60;2.50;;;19.00;60.90;;;;;;5009949;28;20041;-84
2021/07/30 02:14:16;;;;;;;2.72;2.63;;;19.10;61.00;;;;;;5029978;28;20183;-86
2021/07/30 02:16:49;;;;;;;2.60;2.50;;;19.00;61.00;;;;;;5027882;28;20344;-85
2021/07/30 02:19:17;;;;;;;2.42;2.33;;;19.00;61.10;;;;;;5028686;28;20414;-85
2021/07/30 02:21:43;;;;;;;2.25;2.15;;;19.00;61.20;;;;;;5026987;28;20033;-85
2021/07/30 02:24:09;;;;;;;2.38;2.28;;;18.90;61.10;;;;;;5027628;28;20052;-84
2021/07/30 02:26:38;;;;;;;2.42;2.33;;;18.90;61.20;;;;;;5027456;28;20029;-84
2021/07/30 02:29:04;;;;;;;2.13;2.03;;;18.90;61.30;;;;;;5028945;28;20037;-86
2021/07/30 02:31:30;;;;;;;2.20;2.10;;;19.00;61.40;;;;;;5028202;28;20049;-86
2021/07/30 02:33:56;;;;;;;2.13;2.03;;;18.90;61.50;;;;;;5026140;28;20028;-85
2021/07/30 02:36:22;;;;;;;2.10;2.00;;;18.90;61.40;;;;;;5028244;28;20045;-85
2021/07/30 02:38:49;;;;;;;2.38;2.28;;;18.90;61.50;;;;;;5030835;28;20466;-85
2021/07/30 02:41:16;;;;;;;2.33;2.22;;;18.90;61.60;;;;;;5014817;28;20038;-85
2021/07/30 02:43:43;;;;;;;2.22;2.13;;;18.90;61.70;;;;;;5036641;28;20053;-86
2021/07/30 02:46:09;;;;;;;2.28;2.17;;;18.90;61.70;;;;;;5032638;28;20497;-85
2021/07/30 02:48:35;;;;;;;2.20;2.10;;;18.90;61.80;;;;;;5035233;28;20033;-85
2021/07/30 02:51:02;;;;;;;2.22;2.13;;;18.90;61.90;;;;;;5033191;28;20028;-84
2021/07/30 02:53:28;;;;;;;2.25;2.15;;;18.80;61.90;;;;;;5014005;28;20029;-85
2021/07/30 02:55:54;;;;;;;2.33;2.22;;;18.80;62.00;;;;;;5037048;28;20036;-85
2021/07/30 02:58:20;;;;;;;2.00;1.90;;;18.80;62.00;;;;;;5034894;28;20425;-85
2021/07/30 03:00:46;;;;;;;2.15;2.05;;;18.80;62.10;;;;;;5033317;28;20034;-85
2021/07/30 03:03:12;;;;;;;2.10;2.00;;;18.80;62.20;;;;;;5034749;28;20482;-85
2021/07/30 03:05:38;;;;;;;3.47;2.05;;;18.70;62.20;;;;;;5030182;28;20025;-85
2021/07/30 03:08:05;;;;;;;2.30;2.20;;;18.70;62.20;;;;;;5033932;28;20478;-85
2021/07/30 03:10:31;;;;;;;2.00;1.90;;;18.70;62.30;;;;;;5034292;28;20033;-85
2021/07/30 03:12:57;;;;;;;2.42;2.33;;;18.70;62.50;;;;;;5034919;28;20032;-85
2021/07/30 03:15:23;;;;;;;2.40;2.20;;;18.70;62.40;;;;;;5031558;28;20033;-85
2021/07/30 03:17:49;;;;;;;2.33;2.22;;;18.70;62.50;;;;;;5033095;28;20029;-85
2021/07/30 03:20:15;;;;;;;2.13;2.03;;;18.70;62.60;;;;;;5031692;28;20033;-86
2021/07/30 03:22:41;;;;;;;1.90;1.80;;;18.60;62.60;;;;;;5038285;28;20098;-85
2021/07/30 03:25:07;;;;;;;1.80;1.70;;;18.60;62.70;;;;;;5037858;28;20013;-86
2021/07/30 03:27:33;;;;;;;2.05;1.95;;;18.60;62.80;;;;;;5038702;28;20029;-85
2021/07/30 03:30:00;;;;;;;2.10;2.00;;;18.50;62.80;;;;;;5037028;28;20025;-85
2021/07/30 03:32:26;;;;;;;1.95;1.85;;;18.50;62.90;;;;;;5019275;28;20076;-85
2021/07/30 03:34:52;;;;;;;2.00;1.90;;;18.50;62.90;;;;;;5060256;28;20024;-85
2021/07/30 03:37:18;;;;;;;1.80;1.70;;;18.50;63.00;;;;;;5058642;28;20051;-84
2021/07/30 03:39:44;;;;;;;2.20;2.10;;;18.50;63.10;;;;;;5058377;28;20029;-85
2021/07/30 03:42:10;;;;;;;2.00;1.90;;;18.50;63.10;;;;;;5040636;28;20342;-85
2021/07/30 03:44:36;;;;;;;2.38;2.28;;;18.50;63.20;;;;;;5037274;28;20024;-85
2021/07/30 03:47:03;;;;;;;2.30;2.10;;;18.50;63.20;;;;;;5037156;28;20049;-85
2021/07/30 03:49:29;;;;;;;2.20;2.10;;;18.40;63.10;;;;;;5038768;28;20077;-85
2021/07/30 03:51:55;;;;;;;2.03;1.92;;;18.50;63.20;;;;;;5037232;28;20036;-85
2021/07/30 03:54:21;;;;;;;1.95;1.85;;;18.50;63.20;;;;;;5037043;28;20386;-85
2021/07/30 03:56:47;;;;;;;2.20;2.10;;;18.50;63.20;;;;;;5036376;28;20030;-85
2021/07/30 03:59:13;;;;;;;2.20;2.10;;;18.50;63.20;;;;;;5036066;28;20029;-83
2021/07/30 04:01:47;;;;;;;2.40;2.30;;;18.50;63.20;;;;;;5039605;28;20519;-85
2021/07/30 04:04:14;;;;;;;2.20;2.10;;;18.60;63.20;;;;;;5020933;28;20483;-85
2021/07/30 04:06:41;;;;;;;2.13;2.03;;;18.60;63.20;;;;;;5038251;28;20467;-85
2021/07/30 04:09:13;;;;;;;2.20;2.10;;;18.60;63.20;;;;;;5018950;28;20394;-85
2021/07/30 04:11:40;;;;;;;2.10;2.00;;;18.60;63.30;;;;;;5034325;28;20034;-83
2021/07/30 04:14:06;;;;;;;2.35;2.25;;;18.60;63.20;;;;;;5037573;28;20033;-86
2021/07/30 04:16:33;;;;;;;2.05;1.95;;;18.70;63.30;;;;;;5037021;28;20037;-84
2021/07/30 04:18:59;;;;;;;2.13;2.03;;;18.70;63.30;;;;;;5019529;28;20061;-85
2021/07/30 04:21:25;;;;;;;2.20;2.10;;;18.70;63.30;;;;;;5020194;28;20036;-85
2021/07/30 04:23:51;;;;;;;2.20;2.10;;;18.70;63.30;;;;;;5018551;28;20045;-85
2021/07/30 04:26:17;;;;;;;2.17;2.05;;;18.70;63.30;;;;;;5034717;28;20025;-85
2021/07/30 04:28:43;;;;;;;2.10;2.00;;;18.80;63.40;;;;;;5038580;28;20036;-85
2021/07/30 04:31:09;;;;;;;2.20;2.10;;;18.80;63.40;;;;;;5037030;28;20482;-85
2021/07/30 04:33:35;;;;;;;2.10;2.00;;;18.80;63.50;;;;;;5017917;28;20037;-85
2021/07/30 04:36:01;;;;;;;2.35;2.17;;;18.80;63.50;;;;;;5019969;28;20430;-85
2021/07/30 04:38:28;;;;;;;2.38;2.28;;;18.80;63.50;;;;;;5017437;28;20036;-85
2021/07/30 04:40:54;;;;;;;2.17;2.08;;;18.80;63.60;;;;;;5039297;28;20033;-85
2021/07/30 04:43:20;;;;;;;2.13;2.03;;;18.80;63.60;;;;;;5037372;28;20048;-85
2021/07/30 04:45:46;;;;;;;1.83;1.73;;;18.80;63.70;;;;;;5025008;28;20056;-85
2021/07/30 04:48:12;;;;;;;2.00;1.90;;;18.80;63.70;;;;;;5055400;28;20025;-84
2021/07/30 04:50:38;;;;;;;10.60;2.15;;;18.80;63.70;;;;;;5053991;28;20389;-85
2021/07/30 04:53:05;;;;;;;1.98;1.88;;;18.80;63.70;;;;;;5057221;28;20036;-85
2021/07/30 04:55:31;;;;;;;2.60;2.40;;;18.90;63.80;;;;;;5056217;28;20033;-84
2021/07/30 04:57:57;;;;;;;2.10;1.95;;;18.90;63.80;;;;;;5057064;28;20051;-85
2021/07/30 05:00:24;;;;;;;2.17;2.00;;;18.90;63.80;;;;;;5035879;28;20379;-85
2021/07/30 05:02:53;;;;;;;1.83;1.73;;;18.90;63.90;;;;;;5034922;28;20030;-84
2021/07/30 05:05:19;;;;;;;2.30;2.10;;;19.00;63.90;;;;;;5015756;28;20053;-85
2021/07/30 05:07:45;;;;;;;1.90;1.80;;;19.00;63.80;;;;;;5039057;28;20463;-85
2021/07/30 05:10:11;;;;;;;1.80;1.70;;;19.00;63.80;;;;;;5036512;28;20034;-86
2021/07/30 05:12:37;;;;;;;1.92;1.83;;;19.10;63.90;;;;;;5035162;28;20038;-85
2021/07/30 05:15:05;;;;;;;2.00;1.90;;;19.10;63.90;;;;;;5036607;28;20025;-85
2021/07/30 05:17:31;;;;;;;1.90;1.80;;;19.10;63.90;;;;;;5034290;28;20036;-85
2021/07/30 05:19:57;;;;;;;2.03;1.92;;;19.10;63.90;;;;;;5040709;28;20021;-84
2021/07/30 05:22:23;;;;;;;2.00;1.90;;;19.20;64.00;;;;;;5056468;28;20055;-85
2021/07/30 05:24:49;;;;;;;1.95;1.85;;;19.20;64.00;;;;;;5056826;28;20032;-84
2021/07/30 05:27:15;;;;;;;1.92;1.83;;;19.20;64.00;;;;;;5037208;28;20512;-85
2021/07/30 05:29:41;;;;;;;1.45;1.42;;;19.20;64.10;;;;;;5053697;28;20039;-84
2021/07/30 05:32:08;;;;;;;1.70;1.60;;;19.20;64.20;;;;;;5020057;28;20592;-85
2021/07/30 05:34:34;;;;;;;1.85;1.75;;;19.30;64.30;;;;;;5052865;28;20439;-86
2021/07/30 05:37:00;;;;;;;2.00;1.90;;;19.30;64.30;;;;;;5036452;28;20028;-85
2021/07/30 05:39:26;;;;;;;2.13;1.95;;;19.30;64.30;;;;;;5018670;28;20036;-84
2021/07/30 05:41:52;;;;;;;3.38;2.22;;;19.30;64.30;;;;;;5017149;28;20025;-84
2021/07/30 05:44:18;;;;;;;2.10;2.00;;;19.40;64.40;;;;;;5014657;28;20379;-86
2021/07/30 05:46:44;;;;;;;2.00;1.80;;;19.40;64.40;;;;;;5066647;28;20041;-84
2021/07/30 05:49:10;;;;;;;1.90;1.80;;;19.50;64.50;;;;;;5055958;28;20371;-86
2021/07/30 05:51:37;;;;;;;2.58;2.38;;;19.50;64.50;;;;;;5036910;28;20044;-85
2021/07/30 05:54:03;;;;;;;2.28;2.17;;;19.60;64.60;;;;;;5067073;28;20027;-85
2021/07/30 05:56:29;;;;;;;1.80;1.70;;;19.60;64.60;;;;;;5033873;28;20033;-86
2021/07/30 05:58:57;;;;;;;2.50;2.33;;;19.60;64.70;;;;;;5068261;28;20043;-86
2021/07/30 06:01:24;;;;;;;2.13;2.03;;;19.60;64.80;;;;;;5009772;28;20052;-85
2021/07/30 06:03:51;;;;;;;1.90;1.80;;;19.60;64.80;;;;;;5035842;28;20363;-85
2021/07/30 06:06:17;;;;;;;1.95;1.85;;;19.60;64.90;;;;;;5034083;28;20041;-85
2021/07/30 06:08:43;;;;;;;2.08;1.98;;;19.60;65.00;;;;;;5015786;28;20378;-85
2021/07/30 06:11:09;;;;;;;1.90;1.80;;;19.60;65.20;;;;;;5034693;28;20030;-85
2021/07/30 06:13:35;;;;;;;1.80;1.70;;;19.60;65.30;;;;;;5035833;28;20042;-85
2021/07/30 06:16:02;;;;;;;2.33;2.22;;;19.50;65.50;;;;;;5035210;28;20033;-86
2021/07/30 06:18:28;;;;;;;2.33;2.22;;;19.50;65.60;;;;;;5035683;28;20029;-85
2021/07/30 06:20:54;;;;;;;2.25;2.15;;;19.40;65.70;;;;;;5034330;28;20025;-85
2021/07/30 06:23:20;;;;;;;2.38;2.28;;;19.40;65.70;;;;;;5032305;28;20043;-85
2021/07/30 06:25:46;;;;;;;2.45;2.35;;;19.30;65.70;;;;;;5037579;28;20265;-85
2021/07/30 06:28:12;;;;;;;2.40;2.30;;;19.30;65.70;;;;;;5017490;28;20036;-85
2021/07/30 06:30:38;;;;;;;2.30;2.20;;;19.30;65.70;;;;;;5020945;28;20021;-85
2021/07/30 06:33:11;;;;;;;3.05;2.60;;;19.40;65.60;;;;;;5054968;28;20047;-85
2021/07/30 06:35:37;;;;;;;2.53;2.40;;;19.50;65.50;;;;;;5051456;28;20037;-85
2021/07/30 06:38:03;;;;;;;2.30;2.20;;;19.60;65.10;;;;;;5055437;28;20029;-85
2021/07/30 06:40:30;;;;;;;3.80;3.60;;;19.70;64.70;;;;;;5055747;28;20033;-86
2021/07/30 06:42:57;;;;;;;3.55;3.40;;;19.80;64.40;;;;;;5036894;28;20517;-85
2021/07/30 06:45:23;;;;;;;3.35;3.25;;;19.90;64.30;;;;;;5032659;28;20042;-85
2021/07/30 06:47:49;;;;;;;3.10;3.00;;;20.00;64.20;;;;;;5015845;28;20032;-85
2021/07/30 06:50:16;;;;;;;4.85;3.17;;;20.20;63.80;;;;;;5032380;28;20037;-85
2021/07/30 06:52:42;;;;;;;3.35;3.25;;;20.40;63.40;;;;;;5037013;28;20022;-86
2021/07/30 06:55:08;;;;;;;3.47;3.28;;;20.60;63.00;;;;;;5016952;28;20396;-86
2021/07/30 06:57:34;;;;;;;3.90;3.70;;;20.80;62.60;;;;;;5034347;28;20525;-85
2021/07/30 07:00:00;;;;;;;5.10;3.95;;;20.90;62.30;;;;;;5017211;28;20025;-85
2021/07/30 07:02:26;;;;;;;4.47;4.28;;;21.10;61.90;;;;;;5030242;28;20045;-85
2021/07/30 07:04:52;;;;;;;3.80;3.60;;;21.30;61.50;;;;;;5018895;28;20045;-86
2021/07/30 07:07:18;;;;;;;4.30;4.10;;;21.40;61.30;;;;;;5034933;28;20022;-87
2021/07/30 07:09:44;;;;;;;4.30;4.10;;;21.50;61.10;;;;;;5033500;28;20036;-86
2021/07/30 07:12:10;;;;;;;4.60;4.40;;;21.50;61.00;;;;;;5016709;28;20036;-86
2021/07/30 07:14:37;;;;;;;4.53;4.32;;;21.70;60.70;;;;;;5031400;28;20025;-86
2021/07/30 07:17:03;;;;;;;4.72;4.53;;;21.90;60.40;;;;;;5034703;28;20037;-86
2021/07/30 07:19:29;;;;;;;5.60;5.10;;;22.00;60.10;;;;;;5033452;28;20033;-86
2021/07/30 07:21:55;;;;;;;4.63;4.43;;;22.10;59.90;;;;;;5003325;28;20040;-86
2021/07/30 07:24:21;;;;;;;3.97;3.78;;;22.20;59.70;;;;;;5035978;28;20044;-85
2021/07/30 07:26:47;;;;;;;4.57;4.38;;;22.30;59.40;;;;;;5045787;28;20021;-85
2021/07/30 07:29:13;;;;;;;5.07;4.85;;;22.30;59.20;;;;;;5014797;28;20283;-86
2021/07/30 07:31:39;;;;;;;4.65;4.45;;;22.40;59.20;;;;;;5035975;28;20407;-86
2021/07/30 07:34:05;;;;;;;4.55;4.35;;;22.30;59.00;;;;;;5034745;28;20033;-86
2021/07/30 07:36:31;;;;;;;4.70;4.50;;;22.30;59.10;;;;;;5034572;28;20516;-86
2021/07/30 07:38:57;;;;;;;4.78;4.50;;;22.40;59.00;;;;;;5016440;28;20029;-85
2021/07/30 07:41:25;;;;;;;4.40;4.20;;;22.50;58.80;;;;;;5012703;28;20419;-85
2021/07/30 07:43:51;;;;;;;4.55;4.35;;;22.60;58.50;;;;;;5036071;28;20060;-85
2021/07/30 07:46:17;;;;;;;4.72;4.53;;;22.60;58.40;;;;;;5033986;28;20037;-86
2021/07/30 07:48:43;;;;;;;4.65;4.45;;;22.70;58.20;;;;;;5033151;28;20474;-85
2021/07/30 07:51:09;;;;;;;4.45;4.25;;;22.80;58.00;;;;;;5034588;28;20029;-86
2021/07/30 07:53:35;;;;;;;4.28;4.07;;;22.90;58.00;;;;;;5012919;28;20513;-85
2021/07/30 07:56:02;;;;;;;4.90;4.70;;;23.10;57.70;;;;;;5035077;28;20029;-87
2021/07/30 07:58:30;;;;;;;5.25;4.95;;;23.20;57.30;;;;;;5035992;28;20041;-85
2021/07/30 08:00:56;;;;;;;7.85;5.03;;;23.40;57.00;;;;;;5037363;28;20033;-86
2021/07/30 08:03:22;;;;;;;4.55;4.35;;;23.40;56.80;;;;;;5012629;28;20506;-86
2021/07/30 08:05:48;;;;;;;4.68;4.47;;;23.50;56.50;;;;;;5028019;28;20029;-86
2021/07/30 08:08:14;;;;;;;4.80;4.60;;;23.50;56.40;;;;;;5033860;28;20052;-86
2021/07/30 08:10:40;;;;;;;5.03;4.82;;;23.50;56.40;;;;;;5019768;28;20038;-86
2021/07/30 08:13:06;;;;;;;5.13;4.93;;;23.50;56.30;;;;;;5038117;28;20033;-86
2021/07/30 08:15:32;;;;;;;5.43;5.22;;;23.60;56.30;;;;;;5037564;28;20044;-85
2021/07/30 08:17:59;;;;;;;5.80;5.53;;;23.70;56.10;;;;;;5037474;28;20389;-86
2021/07/30 08:20:25;;;;;;;6.03;5.72;;;23.80;55.80;;;;;;5033921;28;20025;-86
2021/07/30 08:22:51;;;;;;;6.15;5.85;;;24.00;55.50;;;;;;5054991;28;20370;-85
2021/07/30 08:25:17;;;;;;;6.38;6.07;;;24.20;55.10;;;;;;5018725;28;20041;-86
2021/07/30 08:27:43;;;;;;;7.10;6.80;;;24.30;54.80;;;;;;5018902;28;20026;-86
2021/07/30 08:30:09;;;;;;;7.65;7.25;;;24.30;54.70;;;;;;5019550;28;20035;-86
2021/07/30 08:32:36;;;;;;;6.30;6.00;;;24.40;54.70;;;;;;5014488;28;20033;-86
2021/07/30 08:35:02;;;;;;;6.10;5.80;;;24.30;54.80;;;;;;5038214;28;20485;-83
2021/07/30 08:37:28;;;;;;;7.75;7.35;;;24.40;54.60;;;;;;5037801;28;20049;-87
2021/07/30 08:39:54;;;;;;;7.60;7.28;;;24.60;54.30;;;;;;5036916;28;20390;-85
2021/07/30 08:42:20;;;;;;;7.82;7.45;;;24.80;53.90;;;;;;5015210;28;20042;-86
2021/07/30 08:44:46;;;;;;;8.95;8.55;;;24.90;53.70;;;;;;5048713;28;20593;-87
2021/07/30 08:47:18;;;;;;;8.95;8.55;;;25.00;53.50;;;;;;5035057;28;20033;-87
2021/07/30 08:49:44;;;;;;;8.45;8.05;;;25.20;53.20;;;;;;5052774;28;20033;-86
2021/07/30 08:52:11;;;;;;;8.30;7.90;;;25.30;53.00;;;;;;5019804;28;20446;-88
2021/07/30 08:54:38;;;;;;;8.05;7.63;;;25.50;52.70;;;;;;5018915;28;20043;-86
2021/07/30 08:57:08;;;;;;;7.75;7.38;;;25.50;52.70;;;;;;5037271;28;20032;-86
2021/07/30 08:59:38;;;;;;;8.40;8.00;;;25.60;52.60;;;;;;5015753;28;20032;-87
2021/07/30 09:02:05;;;;;;;8.70;8.20;;;25.70;52.40;;;;;;5036902;28;20478;-86
2021/07/30 09:04:31;;;;;;;8.93;7.90;;;25.80;52.20;;;;;;5036398;28;20072;-86
2021/07/30 09:06:57;;;;;;;7.80;7.45;;;25.80;52.10;;;;;;5005583;28;20034;-85
2021/07/30 09:09:24;;;;;;;7.93;7.53;;;25.90;52.00;;;;;;5036364;28;20406;-87
2021/07/30 09:11:55;;;;;;;8.88;8.48;;;26.00;51.80;;;;;;5032731;28;20028;-86
2021/07/30 09:14:44;;;;;;;17.83;9.63;;;26.10;51.60;;;;;;5046754;28;20056;-87
2021/07/30 09:17:10;;;;;;;7.90;7.50;;;26.30;51.50;;;;;;5064126;28;20033;-86
2021/07/30 09:20:02;;;;;;;13.18;7.75;;;26.30;51.30;;;;;;5053419;28;20036;-86
2021/07/30 09:22:28;;;;;;;7.32;7.03;;;26.20;51.30;;;;;;5038148;28;20386;-88
2021/07/30 09:25:00;;;;;;;8.40;8.00;;;26.10;51.40;;;;;;5021476;28;20060;-87
2021/07/30 09:27:32;;;;;;;8.07;7.68;;;26.20;51.30;;;;;;5023085;28;20100;-86
2021/07/30 09:30:16;;;;;;;8.45;7.90;;;26.20;51.20;;;;;;5055955;28;20021;-86
2021/07/30 09:32:42;;;;;;;8.20;7.80;;;26.10;51.20;;;;;;5020980;28;20049;-87
2021/07/30 09:35:08;;;;;;;8.60;8.20;;;25.90;51.30;;;;;;5055779;28;20025;-87
2021/07/30 09:37:34;;;;;;;8.60;8.20;;;25.80;51.40;;;;;;5037182;28;20032;-87
2021/07/30 09:40:02;;;;;;;10.32;9.85;;;25.70;51.40;;;;;;5038569;28;20032;-87
2021/07/30 09:42:33;;;;;;;8.38;7.97;;;25.60;51.60;;;;;;5038226;28;20411;-86
2021/07/30 09:45:02;;;;;;;9.18;8.77;;;25.40;51.70;;;;;;5054454;28;20044;-86
2021/07/30 09:47:34;;;;;;;7.70;7.40;;;25.30;51.70;;;;;;5050968;28;20041;-86
2021/07/30 09:50:07;;;;;;;9.35;8.95;;;25.50;51.60;;;;;;5064632;28;20044;-86
2021/07/30 09:52:34;;;;;;;9.80;9.38;;;25.70;51.20;;;;;;5056378;28;20389;-87
2021/07/30 09:55:01;;;;;;;9.07;8.68;;;25.90;50.80;;;;;;5023216;28;20120;-88
2021/07/30 09:57:31;;;;;;;8.10;7.70;;;26.00;50.60;;;;;;5038293;28;20676;-86
2021/07/30 10:00:01;;;;;;;7.93;7.40;;;26.00;50.60;;;;;;5053877;28;20043;-87
2021/07/30 10:02:29;;;;;;;7.07;6.78;;;25.80;50.50;;;;;;5033662;28;20040;-87
2021/07/30 10:04:56;;;;;;;8.20;7.80;;;25.60;50.80;;;;;;5039718;28;20040;-87
2021/07/30 10:07:23;;;;;;;7.97;7.57;;;25.50;50.90;;;;;;5021250;28;20040;-86
2021/07/30 10:12:41;;;;;;;6.63;6.32;;;25.40;50.70;;;;;;5057908;28;20021;-87
2021/07/30 10:15:08;;;;;;;10.23;9.73;;;25.30;50.80;;;;;;5037898;28;20028;-86
2021/07/30 10:17:35;;;;;;;10.10;9.60;;;25.40;50.80;;;;;;5051756;28;20040;-86
2021/07/30 10:20:11;;;;;;;7.90;7.50;;;25.70;50.40;;;;;;5056731;28;20043;-87
2021/07/30 10:22:45;;;;;;;9.30;8.90;;;26.10;50.00;;;;;;5056546;28;20033;-87
2021/07/30 10:25:25;;;;;;;9.20;8.80;;;26.40;49.50;;;;;;5054136;28;20040;-87
2021/07/30 10:27:55;;;;;;;9.20;8.80;;;26.60;49.20;;;;;;5020542;28;20493;-87
2021/07/30 10:30:21;;;;;;;8.75;8.35;;;26.70;48.90;;;;;;5020799;28;20045;-87
2021/07/30 10:32:56;;;;;;;9.18;8.40;;;26.90;48.90;;;;;;5035343;28;20706;-87
2021/07/30 10:35:28;;;;;;;9.27;8.77;;;27.00;48.70;;;;;;5018473;28;20049;-87
2021/07/30 10:38:13;;;;;;;8.20;7.80;;;27.10;48.40;;;;;;5057334;28;20032;-87
2021/07/30 10:40:43;;;;;;;7.80;7.40;;;27.30;48.40;;;;;;5057021;28;20462;-87
2021/07/30 10:43:13;;;;;;;9.43;8.93;;;27.40;48.20;;;;;;5037997;28;20389;-87
2021/07/30 10:45:42;;;;;;;9.40;9.00;;;27.50;48.00;;;;;;5036963;28;20052;-88
2021/07/30 10:48:11;;;;;;;8.10;7.70;;;27.60;48.50;;;;;;5037264;28;20027;-87
2021/07/30 10:50:44;;;;;;;8.43;8.02;;;27.60;47.80;;;;;;5051528;28;20029;-87
2021/07/30 10:53:38;;;;;;;7.43;7.13;;;27.50;47.80;;;;;;5053963;28;20044;-87
2021/07/30 10:56:05;;;;;;;9.73;9.30;;;27.30;47.90;;;;;;5064927;28;20033;-87
2021/07/30 10:58:40;;;;;;;10.30;8.00;;;27.00;48.20;;;;;;5037926;28;20044;-86
2021/07/30 11:01:07;;;;;;;9.57;9.18;;;26.90;48.30;;;;;;5054426;28;20032;-86
2021/07/30 11:03:52;;;;;;;10.15;9.68;;;27.00;48.30;;;;;;5035788;28;20024;-87
2021/07/30 11:06:31;;;;;;;9.45;9.02;;;27.20;48.00;;;;;;5054751;28;20043;-87
2021/07/30 11:09:00;;;;;;;8.85;8.45;;;27.40;47.70;;;;;;5019557;28;20029;-87
2021/07/30 11:11:50;;;;;;;8.80;8.40;;;27.60;47.50;;;;;;5050386;28;20037;-86
2021/07/30 11:14:26;;;;;;;8.93;8.52;;;27.90;47.00;;;;;;5039098;28;20033;-87
2021/07/30 11:16:59;;;;;;;8.77;8.05;;;28.00;46.90;;;;;;5056461;28;20037;-86
2021/07/30 11:19:26;;;;;;;8.32;7.93;;;28.10;46.80;;;;;;5052974;28;20032;-87
2021/07/30 11:21:52;;;;;;;9.38;8.88;;;28.20;46.70;;;;;;5037103;28;20029;-87
2021/07/30 11:24:19;;;;;;;8.93;8.52;;;28.10;46.60;;;;;;5019736;28;20041;-87
2021/07/30 11:26:45;;;;;;;9.10;8.70;;;27.90;46.60;;;;;;5051512;28;20389;-87
2021/07/30 11:29:12;;;;;;;8.15;7.75;;;27.70;46.90;;;;;;5035197;28;20056;-87
2021/07/30 11:31:57;;;;;;;8.85;8.45;;;27.40;47.10;;;;;;5055566;28;20048;-86
2021/07/30 11:34:25;;;;;;;9.63;9.18;;;27.20;47.20;;;;;;5036596;28;20100;-87
2021/07/30 11:36:52;;;;;;;8.88;8.48;;;27.20;47.20;;;;;;5020763;28;20025;-86
2021/07/30 11:39:18;;;;;;;9.77;9.27;;;27.20;47.10;;;;;;5053918;28;20036;-87
2021/07/30 11:41:50;;;;;;;10.20;9.23;;;27.20;47.00;;;;;;5051386;28;20386;-87
2021/07/30 11:44:20;;;;;;;8.50;8.10;;;27.20;46.90;;;;;;5038017;28;20045;-86
2021/07/30 11:46:53;;;;;;;9.30;8.90;;;27.20;46.90;;;;;;5060028;28;20037;-86
2021/07/30 11:49:36;;;;;;;8.80;8.40;;;27.30;46.90;;;;;;5040051;28;20505;-87
2021/07/30 11:52:04;;;;;;;11.82;8.77;;;27.30;46.70;;;;;;5058250;28;20041;-88
2021/07/30 11:54:30;;;;;;;9.75;9.25;;;27.30;46.50;;;;;;5058367;28;20032;-87
2021/07/30 11:56:57;;;;;;;9.10;8.70;;;27.30;46.60;;;;;;5037790;28;20040;-85
2021/07/30 11:59:23;;;;;;;9.13;8.73;;;27.40;46.50;;;;;;5036874;28;20033;-85
2021/07/30 12:02:09;;;;;;;8.85;8.45;;;27.50;46.20;;;;;;5059327;28;20033;-87
2021/07/30 12:04:35;;;;;;;14.05;9.27;;;27.60;46.10;;;;;;5059043;28;20063;-86
2021/07/30 12:07:06;;;;;;;8.55;8.15;;;27.60;46.10;;;;;;5040405;28;20028;-87
2021/07/30 12:09:32;;;;;;;;;;;27.70;46.00;;;;;;5041018;28;20477;-85
2021/07/30 12:11:59;;;;;;;8.13;7.72;;;27.60;45.90;;;;;;5057507;28;19931;-88
2021/07/30 12:14:26;;;;;;;8.82;8.43;;;27.70;45.90;;;;;;5036016;28;20045;-87
2021/07/30 12:16:53;;;;;;;8.82;8.43;;;27.70;45.80;;;;;;5041410;28;20390;-84
2021/07/30 12:19:28;;;;;;;9.65;9.23;;;27.70;45.90;;;;;;5039437;28;20048;-87
2021/07/30 12:21:56;;;;;;;10.85;10.35;;;27.60;45.80;;;;;;5056429;28;20033;-86
2021/07/30 12:24:22;;;;;;;10.00;9.52;;;27.60;45.90;;;;;;5057228;28;20052;-86
2021/07/30 12:26:48;;;;;;;8.77;8.38;;;27.70;45.80;;;;;;5056250;28;20036;-87
2021/07/30 12:29:37;;;;;;;9.68;8.85;;;27.80;45.60;;;;;;5038320;28;20032;-87
2021/07/30 12:32:17;;;;;;;8.88;8.48;;;27.80;45.50;;;;;;5065297;28;20052;-87
2021/07/30 12:34:59;;;;;;;8.07;7.68;;;27.80;45.50;;;;;;5037577;28;20505;-87
2021/07/30 12:37:26;;;;;;;9.13;8.63;;;27.60;45.50;;;;;;5035267;28;20040;-87
2021/07/30 12:39:53;;;;;;;8.18;7.78;;;27.40;45.70;;;;;;5037605;28;20029;-86
2021/07/30 12:42:22;;;;;;;8.98;8.57;;;27.40;45.80;;;;;;5036389;28;20080;-87
2021/07/30 12:45:04;;;;;;;9.20;8.80;;;27.30;45.70;;;;;;5035652;28;20525;-86
2021/07/30 12:47:30;;;;;;;9.85;9.35;;;27.30;45.60;;;;;;5014121;28;20351;-86
2021/07/30 12:49:56;;;;;;;9.35;8.82;;;27.20;45.70;;;;;;5030553;28;20039;-87
2021/07/30 12:52:23;;;;;;;8.32;7.93;;;27.00;45.80;;;;;;5037268;28;20037;-86